Terminal Aerodrome Forecast
Issued by NWS

Home | Current Version | Previous Version | Graphics & Text | Print | Product List | Glossary On
Versions: 1 2 3 4 5 6 7 8 9 10 11 12 13 14 15 16 17 18 19
000
FTUS42 KMHX 250557
TAFISO
TAF
KISO 250557Z 2506/2606 05007KT P6SM OVC200
     FM251600 08005KT P6SM OVC050
     FM251900 13005KT P6SM OVC050
     FM260200 15005KT P6SM OVC030
      AMD LTD TO CLD VIS AND WIND=

USA.gov is the U.S. government's official web portal to all federal, state and local government web resources and services.